This is the latest recevied weather packets stored in our database for station/object KC3SPD-13. If no packets are shown the sender has not sent any weather packets the latest 10 day(s).
| Time | Temp. | Humidity | Pressure | Rain* | Wind** | Luminosity | Snow |
|---|---|---|---|---|---|---|---|
| 1777596604 | 7.78° C | 71% | 965.8 hPa | 0 mm | - | 0 W/m² | - |
| 1777595104 | 8.33° C | 71% | 965.5 hPa | 0 mm | - | 3 W/m² | - |
| 1777594804 | 8.33° C | 69% | 965.5 hPa | 0 mm | - | 6 W/m² | - |
| 1777593904 | 8.33° C | 71% | 965.3 hPa | 0 mm | - | 16 W/m² | - |
| 1777592103 | 9.44° C | 67% | 964.8 hPa | 0 mm | - | 0 W/m² | - |
| 1777590304 | 10° C | 66% | 965 hPa | 0 mm | - | 0 W/m² | - |
| 1777589404 | 10° C | 67% | 965.1 hPa | 0 mm | - | 0 W/m² | - |
| 1777587304 | 9.44° C | 71% | 965.2 hPa | 0 mm | - | 0 W/m² | - |
| 1777584304 | 10.56° C | 66% | 964.1 hPa | 0 mm | - | 0 W/m² | - |
| 1777582504 | 10° C | 71% | 964.1 hPa | 0 mm | - | 0 W/m² | - |
| 1777581004 | 10° C | 71% | 964.2 hPa | 0 mm | - | 0 W/m² | - |
| 1777578005 | 10.56° C | 72% | 963.4 hPa | 0.25 mm | - | 0 W/m² | - |
| 1777577404 | 11.11° C | 70% | 963.5 hPa | 0.25 mm | - | 0 W/m² | - |
| 1777576804 | 11.67° C | 71% | 963.2 hPa | 0 mm | - | 0 W/m² | - |
| 1777576204 | 11.67° C | 72% | 962.9 hPa | 0 mm | - | 0 W/m² | - |
| 1777574105 | 10° C | 77% | 963.1 hPa | 0 mm | - | 0 W/m² | - |
| 1777573804 | 9.44° C | 82% | 963 hPa | 0 mm | - | 0 W/m² | - |
| 1777569904 | 12.22° C | 66% | 962.4 hPa | 0 mm | - | 0 W/m² | - |
| 1777569004 | 12.22° C | 63% | 962.6 hPa | 0 mm | - | 0 W/m² | - |
| 1777565704 | 12.78° C | 56% | 962.5 hPa | 0 mm | - | 0 W/m² | - |
| 1777565105 | 13.33° C | 52% | 962.3 hPa | 0 mm | - | 0 W/m² | - |
| 1777564204 | 12.22° C | 57% | 962.1 hPa | 0 mm | - | 0 W/m² | - |
| 1777563904 | 11.67° C | 62% | 962.2 hPa | 0 mm | - | 0 W/m² | - |
| 1777560604 | 11.67° C | 59% | 962.4 hPa | 0 mm | - | 0 W/m² | - |
| 1777558505 | 11.11° C | 67% | 962.3 hPa | 0 mm | - | 0 W/m² | - |
* Rain latest hour (hover to see other rain measurements)
** Current wind speed in m/s (hover to see current wind gust speed)